Airfield :
LOGIN :

Register | Disclaimer

   EN    FR    IT 

 










Legend :    VFR   Marginal VFR   IFR   Intensive IFR   Very Intensive IFR
Visi :
Ceiling :
>= 8 km
>= 3000ft
5 to 8 km
1000 to 3000 ft
1500m to 5 km
500 to 1000 ft
800 to 1500m
200 to 500 ft
< 800m
< 200 ft
Symbols :   Thunderstorms  Fog  Heavy snow  Heavy precipitations  Wind > 20 kt
SIGMETs :     Misc.  Thunderstorms  Icing  Turbulence  Mountain Waves  Volcanic Ashes






- Airport Elevation : 374 ft
- IATA code : LIS


LPPT - Lisboa Portela

CURRENT METAR :
  • 041100Z VRB01KT 9999 FEW016 BKN018 21/16 Q1019

EXPIRED METARs :
  • 041030Z 08005KT 010V110 9999 FEW014 OVC016 20/16 Q1019
  • 041000Z 11004G14KT 060V220 9999 FEW013 BKN015 20/16 Q1019
  • 040930Z VRB01KT 9999 BKN014 19/16 Q1019
  • 040900Z 00000KT 9999 BKN012 19/16 Q1019
  • 040830Z VRB03KT 9999 BKN012 19/16 Q1019

TAF TAF LPPT
Valid from the 04 at 06:00 until the 05 at 12:00 UTC


040500Z 0406/0512 30007KT 9999 BKN012
BECMG 0407/0410 VRB02KT FEW020
BECMG 0412/0414 24007KT CAVOK
BECMG 0416/0418 31010KT
BECMG 0500/0503 VRB02KT 9999 SCT012
PROB30
TEMPO 0503/0507 BKN008



MET'MAP, your aeronautical weather chart ! - Copyright ORBIFLY December 2007 - Disclaimer

ORBIFLY MET'MAP TEAM :

Programming & Development : Alexandra Zaïnal
Original concept : Baudouin d'Aumeries
Technical & hardware support : Manuel Goepfert
Assistance : Marc-Olivier Méhu




SOURCES & CREDITS :

   NOAA